createdAt,value
2019-03-08T04:48:28.021Z,6.66
2019-03-08T04:50:59.418Z,6.69
2019-03-08T04:53:30.048Z,6.81
2019-03-08T04:56:00.576Z,6.96
2019-03-08T04:58:32.245Z,7.04
2019-03-08T05:01:02.768Z,7.17
2019-03-08T05:03:33.398Z,7.27
2019-03-08T05:06:03.934Z,7.33
2019-03-08T05:08:34.464Z,7.36
2019-03-08T05:11:04.993Z,7.38
2019-03-08T05:13:35.622Z,7.40
2019-03-08T05:16:06.447Z,7.43
2019-03-08T05:18:36.989Z,7.43
2019-03-08T05:21:07.525Z,7.46
2019-03-08T05:23:38.050Z,7.48
2019-03-08T05:26:08.590Z,7.51
2019-03-08T05:28:39.298Z,7.51
2019-03-08T05:31:09.855Z,7.52
2019-03-08T05:33:40.484Z,7.54
2019-03-08T05:36:11.014Z,7.58
2019-03-08T05:38:41.654Z,7.58
2019-03-08T05:41:12.183Z,7.64
2019-03-08T05:43:42.717Z,7.67
2019-03-08T05:46:13.554Z,7.66
2019-03-08T05:48:44.186Z,7.69
2019-03-08T05:51:14.814Z,7.71
2019-03-08T05:53:45.291Z,7.75
2019-03-08T05:56:15.876Z,7.79
2019-03-08T05:58:46.374Z,7.83
2019-03-08T06:01:16.936Z,7.92
2019-03-08T06:03:47.473Z,7.92
2019-03-08T06:06:18.106Z,8.00
2019-03-08T06:08:48.834Z,8.07
2019-03-08T06:11:19.364Z,8.11
2019-03-08T06:13:49.946Z,8.16
2019-03-08T06:16:20.536Z,8.24
2019-03-08T06:18:51.521Z,8.38
2019-03-08T06:21:26.063Z,8.51
2019-03-08T06:23:57.351Z,8.67
2019-03-08T06:26:28.077Z,8.78
2019-03-08T06:28:58.816Z,8.93
2019-03-08T06:31:29.289Z,9.14
2019-03-08T06:34:00.392Z,9.36
2019-03-08T06:36:30.963Z,9.54
2019-03-08T06:39:01.745Z,9.69
2019-03-08T06:41:33.828Z,9.76
2019-03-08T06:44:04.356Z,9.92
2019-03-08T06:46:34.888Z,10.06
2019-03-08T06:49:05.423Z,10.28
2019-03-08T06:51:36.047Z,10.37
2019-03-08T06:54:06.687Z,10.43
2019-03-08T06:56:37.205Z,10.57
2019-03-08T06:59:09.329Z,10.68
2019-03-08T07:01:40.680Z,10.79
2019-03-08T07:04:11.263Z,10.95
2019-03-08T07:06:41.894Z,11.07
2019-03-08T07:09:12.429Z,11.17
2019-03-08T07:11:42.958Z,11.36
2019-03-08T07:14:13.626Z,11.42
2019-03-08T07:16:44.518Z,11.42
2019-03-08T07:19:14.996Z,11.41
2019-03-08T07:21:49.686Z,11.45
2019-03-08T07:24:28.294Z,11.60
2019-03-08T07:27:17.058Z,11.60
2019-03-08T07:30:01.319Z,11.55
2019-03-08T07:32:36.664Z,11.46
2019-03-08T07:35:25.321Z,11.48
2019-03-08T07:38:03.686Z,11.25
2019-03-08T07:40:52.283Z,11.13
2019-03-08T07:43:24.500Z,11.01
2019-03-08T07:45:56.726Z,11.10
2019-03-08T07:48:44.459Z,11.12
2019-03-08T07:51:16.628Z,11.06
2019-03-08T07:53:48.799Z,11.35
2019-03-08T07:56:23.649Z,11.49
2019-03-08T07:58:58.833Z,11.30
2019-03-08T08:01:31.034Z,11.39
2019-03-08T08:04:03.211Z,11.53
2019-03-08T08:06:35.489Z,11.56
2019-03-08T08:09:23.624Z,11.54
2019-03-08T08:11:58.504Z,11.65
2019-03-08T08:14:39.143Z,11.49
2019-03-08T08:17:20.913Z,11.70
2019-03-08T08:19:53.088Z,11.78
2019-03-08T08:22:40.430Z,11.77
2019-03-08T08:25:24.969Z,12.33
2019-03-08T08:28:03.276Z,12.29
2019-03-08T08:30:53.930Z,12.43
2019-03-08T08:33:44.588Z,12.54
2019-03-08T08:36:25.880Z,12.54
2019-03-08T08:39:04.194Z,12.43
2019-03-08T08:41:40.558Z,12.48
2019-03-08T08:44:30.948Z,12.63
2019-03-08T08:47:12.035Z,12.68
2019-03-08T08:50:02.679Z,12.53
2019-03-08T08:52:37.565Z,12.51
2019-03-08T08:55:13.111Z,12.61
2019-03-08T08:57:48.143Z,12.64
2019-03-08T09:00:32.309Z,12.80
2019-03-08T09:03:16.850Z,12.80
2019-03-08T09:05:49.140Z,13.23
2019-03-08T09:08:24.266Z,13.10
2019-03-08T09:10:56.387Z,12.84
2019-03-08T09:13:31.166Z,12.64
2019-03-08T09:16:03.330Z,12.57
2019-03-08T09:18:35.670Z,12.63
2019-03-08T09:21:26.014Z,12.70
2019-03-08T09:23:58.267Z,12.59
2019-03-08T09:26:45.833Z,12.70
2019-03-08T09:29:18.275Z,12.75
2019-03-08T09:32:05.827Z,12.81
2019-03-08T09:34:42.895Z,12.86
2019-03-08T09:37:15.159Z,12.80
2019-03-08T09:39:50.297Z,12.67
2019-03-08T09:42:34.416Z,12.43
2019-03-08T09:45:11.897Z,12.41
2019-03-08T09:47:44.104Z,12.31
2019-03-08T09:50:16.270Z,12.37
2019-03-08T09:52:51.503Z,12.30
2019-03-08T09:55:26.854Z,12.40
2019-03-08T09:57:59.294Z,12.40
2019-03-08T10:00:34.743Z,12.43
2019-03-08T10:03:23.219Z,12.68
2019-03-08T10:05:59.151Z,13.01
2019-03-08T10:08:40.461Z,13.25
2019-03-08T10:11:18.239Z,13.52
2019-03-08T10:13:50.502Z,13.55
2019-03-08T10:16:28.312Z,13.69
2019-03-08T10:19:03.548Z,13.83
2019-03-08T10:21:41.762Z,13.72
2019-03-08T10:24:13.946Z,13.58
2019-03-08T10:26:55.461Z,13.71
2019-03-08T10:29:27.688Z,13.51
2019-03-08T10:32:02.620Z,13.68
2019-03-08T10:34:40.633Z,13.86
2019-03-08T10:37:15.563Z,13.54
2019-03-08T10:39:54.024Z,13.19
2019-03-08T10:42:42.526Z,12.91
2019-03-08T10:45:24.020Z,12.80
2019-03-08T10:47:59.058Z,12.54
2019-03-08T10:50:43.512Z,12.51
2019-03-08T10:53:15.681Z,12.49
2019-03-08T10:56:06.082Z,12.47
2019-03-08T10:58:38.241Z,12.35
2019-03-08T11:01:25.474Z,12.53
2019-03-08T11:04:06.655Z,12.71
2019-03-08T11:06:55.417Z,12.72
2019-03-08T11:09:44.266Z,12.75
2019-03-08T11:12:34.371Z,12.77
2019-03-08T11:15:26.170Z,12.87
2019-03-08T11:18:04.089Z,12.82
2019-03-08T11:20:52.546Z,13.05
2019-03-08T11:23:32.088Z,13.04
2019-03-08T11:26:10.296Z,13.14
2019-03-08T11:29:00.894Z,13.29
2019-03-08T11:31:48.737Z,13.47
2019-03-08T11:34:30.664Z,13.75
2019-03-08T11:37:04.203Z,13.89
2019-03-08T11:39:39.511Z,13.72
2019-03-08T11:42:14.518Z,13.68
2019-03-08T11:44:46.654Z,13.57
2019-03-08T11:47:19.060Z,13.67
2019-03-08T11:50:03.415Z,13.77
2019-03-08T11:52:41.527Z,13.63
2019-03-08T11:55:23.113Z,13.41
2019-03-08T11:57:55.281Z,13.41
2019-03-08T12:00:27.446Z,13.40
2019-03-08T12:02:59.718Z,13.23
2019-03-08T12:05:49.851Z,13.35
2019-03-08T12:08:25.263Z,13.59
2019-03-08T12:11:09.183Z,13.62
2019-03-08T12:13:59.761Z,13.94
2019-03-08T12:16:44.160Z,13.90
2019-03-08T12:19:28.612Z,13.86
2019-03-08T12:22:16.957Z,13.87
2019-03-08T12:24:51.893Z,13.72
2019-03-08T12:27:29.796Z,13.69
2019-03-08T12:30:04.241Z,13.52
2019-03-08T12:32:37.278Z,13.50
2019-03-08T12:35:21.370Z,13.12
2019-03-08T12:37:59.260Z,12.96
2019-03-08T12:40:31.361Z,12.71
2019-03-08T12:43:08.011Z,12.68
2019-03-08T12:45:46.424Z,12.54
2019-03-08T12:48:34.559Z,12.55
2019-03-08T12:51:09.391Z,12.63
2019-03-08T12:53:58.046Z,12.57
2019-03-08T12:56:46.705Z,11.78
2019-03-08T12:59:18.882Z,10.62
2019-03-08T13:01:54.018Z,10.01
2019-03-08T13:04:31.923Z,10.06
2019-03-08T13:07:13.516Z,10.13
2019-03-08T13:09:45.679Z,10.06
2019-03-08T13:12:16.418Z,10.28
2019-03-08T13:14:47.971Z,10.64
2019-03-08T13:17:18.904Z,10.87
2019-03-08T13:19:49.435Z,10.95
2019-03-08T13:22:20.082Z,11.04
2019-03-08T13:24:50.608Z,11.12
2019-03-08T13:27:21.241Z,11.14
2019-03-08T13:29:51.772Z,11.29
2019-03-08T13:32:22.401Z,11.29
2019-03-08T13:34:53.766Z,11.23
2019-03-08T13:37:24.284Z,11.37
2019-03-08T13:39:54.832Z,11.36
2019-03-08T13:42:25.343Z,11.32
2019-03-08T13:44:55.825Z,11.15
2019-03-08T13:47:26.471Z,10.97
2019-03-08T13:49:57.019Z,10.83
2019-03-08T13:52:27.676Z,10.57
2019-03-08T13:54:58.303Z,10.38
2019-03-08T13:57:28.934Z,9.80
2019-03-08T13:59:59.576Z,9.47
2019-03-08T14:02:30.205Z,9.69
2019-03-08T14:05:00.736Z,9.86
2019-03-08T14:07:32.493Z,9.98
2019-03-08T14:10:03.430Z,10.00
2019-03-08T14:12:34.073Z,9.92
2019-03-08T14:15:10.568Z,10.13
2019-03-08T14:17:41.168Z,10.28
2019-03-08T14:20:26.348Z,10.37
2019-03-08T14:22:57.392Z,10.47
2019-03-08T14:25:27.952Z,10.31
2019-03-08T14:27:58.559Z,10.35
2019-03-08T14:30:32.083Z,10.42
2019-03-08T14:33:03.510Z,10.44
2019-03-08T14:35:34.046Z,10.37
2019-03-08T14:38:04.667Z,10.37
2019-03-08T14:40:36.948Z,10.49
2019-03-08T14:43:09.208Z,10.47
2019-03-08T14:45:44.644Z,10.34
2019-03-08T14:48:15.600Z,10.29
2019-03-08T14:50:46.333Z,10.26
2019-03-08T14:53:17.278Z,10.14
2019-03-08T14:55:47.919Z,10.25
2019-03-08T14:58:20.290Z,10.37
2019-03-08T15:00:51.119Z,10.11
2019-03-08T15:03:23.702Z,9.95
2019-03-08T15:05:54.819Z,10.00
2019-03-08T15:08:26.606Z,9.98
2019-03-08T15:10:57.237Z,9.91
2019-03-08T15:13:28.894Z,9.76
2019-03-08T15:16:02.236Z,9.74
2019-03-08T15:18:31.997Z,9.70
2019-03-08T15:21:02.638Z,9.67
2019-03-08T15:23:33.273Z,9.69
2019-03-08T15:26:04.007Z,9.75
2019-03-08T15:28:34.694Z,9.78
2019-03-08T15:31:05.267Z,9.88
2019-03-08T15:33:36.007Z,9.88
2019-03-08T15:36:06.648Z,9.92
2019-03-08T15:38:37.143Z,9.97
2019-03-08T15:41:07.808Z,9.95
2019-03-08T15:43:38.305Z,10.03
2019-03-08T15:46:08.963Z,9.97
2019-03-08T15:48:39.527Z,10.06
2019-03-08T15:51:10.643Z,10.03
2019-03-08T15:53:41.337Z,9.97
2019-03-08T15:56:11.814Z,9.99
2019-03-08T15:58:42.446Z,9.92
2019-03-08T16:01:12.973Z,9.92
2019-03-08T16:03:43.774Z,9.89
2019-03-08T16:06:14.258Z,9.85
2019-03-08T16:08:44.974Z,9.84
2019-03-08T16:11:15.457Z,9.85
2019-03-08T16:13:46.135Z,9.76
2019-03-08T16:16:16.691Z,9.77
2019-03-08T16:18:48.222Z,9.81
2019-03-08T16:21:18.953Z,9.71
2019-03-08T16:23:51.655Z,9.67
2019-03-08T16:26:25.397Z,9.58
2019-03-08T16:28:54.442Z,9.57
2019-03-08T16:31:36.140Z,9.52
2019-03-08T16:34:08.507Z,9.45
2019-03-08T16:36:43.948Z,9.37
2019-03-08T16:39:28.207Z,9.32
2019-03-08T16:42:06.728Z,9.25
2019-03-08T16:44:39.098Z,9.17
2019-03-08T16:47:23.454Z,9.15
2019-03-08T16:50:08.023Z,9.05
2019-03-08T16:52:40.253Z,9.01
2019-03-08T16:55:30.891Z,8.96
2019-03-08T16:58:12.678Z,8.89
2019-03-08T17:00:45.051Z,8.84
2019-03-08T17:03:17.425Z,8.79
2019-03-08T17:05:52.465Z,8.76
2019-03-08T17:08:27.510Z,8.72
2019-03-08T17:11:16.260Z,8.71
2019-03-08T17:13:51.609Z,8.69
2019-03-08T17:16:38.830Z,8.66
2019-03-08T17:19:13.868Z,8.62
2019-03-08T17:21:46.344Z,8.59
2019-03-08T17:24:38.584Z,8.54
2019-03-08T17:27:13.391Z,8.49
2019-03-08T17:29:45.931Z,8.50
2019-03-08T17:32:18.170Z,8.45
2019-03-08T17:34:50.636Z,8.46
2019-03-08T17:37:28.635Z,8.45
2019-03-08T17:40:17.516Z,8.46
2019-03-08T17:42:51.416Z,8.39
2019-03-08T17:45:35.978Z,8.37
2019-03-08T17:48:08.242Z,8.36
2019-03-08T17:50:42.149Z,8.40
2019-03-08T17:53:30.806Z,8.49
2019-03-08T17:56:07.448Z,8.58
2019-03-08T17:58:42.377Z,8.65
2019-03-08T18:01:14.587Z,8.70
2019-03-08T18:03:55.814Z,8.64
2019-03-08T18:06:34.262Z,8.66
2019-03-08T18:09:07.171Z,8.59
2019-03-08T18:11:43.929Z,8.50
2019-03-08T18:14:33.282Z,8.35
2019-03-08T18:17:08.154Z,8.25
2019-03-08T18:19:41.100Z,8.10
2019-03-08T18:22:14.088Z,8.02
2019-03-08T18:24:52.397Z,7.92
2019-03-08T18:27:25.281Z,7.91
2019-03-08T18:30:01.699Z,7.85
2019-03-08T18:32:51.453Z,7.81
2019-03-08T18:35:32.766Z,7.74
2019-03-08T18:38:23.419Z,7.68
2019-03-08T18:41:01.480Z,7.64
2019-03-08T18:43:42.958Z,7.61
2019-03-08T18:46:18.306Z,7.54
2019-03-08T18:49:07.744Z,7.48
2019-03-08T18:51:58.172Z,7.47
2019-03-08T18:54:30.546Z,7.41
2019-03-08T18:57:03.030Z,7.39
2019-03-08T18:59:51.884Z,7.38
2019-03-08T19:02:30.304Z,7.33
2019-03-08T19:05:02.774Z,7.26
2019-03-08T19:07:42.732Z,7.16
2019-03-08T19:10:30.899Z,7.14
2019-03-08T19:13:15.029Z,7.04
2019-03-08T19:15:47.298Z,7.00
2019-03-08T19:18:25.615Z,6.93
2019-03-08T19:21:06.840Z,6.86
2019-03-08T19:23:54.633Z,6.77
2019-03-08T19:26:29.468Z,6.74
2019-03-08T19:29:07.685Z,6.69
2019-03-08T19:31:40.052Z,6.66
2019-03-08T19:34:12.388Z,6.63
2019-03-08T19:36:44.715Z,6.54
2019-03-08T19:39:19.522Z,6.53
2019-03-08T19:41:57.836Z,6.52
2019-03-08T19:44:42.698Z,6.49
2019-03-08T19:47:21.020Z,6.43
2019-03-08T19:50:07.216Z,6.36
2019-03-08T19:52:39.594Z,6.33
2019-03-08T19:55:16.454Z,6.27
2019-03-08T19:58:03.898Z,6.22
